sensor_id;sensor_type;location;lat;lon;timestamp;P1;durP1;ratioP1;P2;durP2;ratioP2
3491;SDS011;1760;52.480;13.422;2022-11-15T00:01:07;24.00;;;15.80;;
3491;SDS011;1760;52.480;13.422;2022-11-15T00:03:40;32.33;;;16.03;;
3491;SDS011;1760;52.480;13.422;2022-11-15T00:06:07;27.90;;;18.27;;
3491;SDS011;1760;52.480;13.422;2022-11-15T00:08:35;34.10;;;17.43;;
3491;SDS011;1760;52.480;13.422;2022-11-15T00:11:02;27.23;;;16.17;;
3491;SDS011;1760;52.480;13.422;2022-11-15T00:13:35;21.57;;;12.67;;
3491;SDS011;1760;52.480;13.422;2022-11-15T00:16:02;33.07;;;15.07;;
3491;SDS011;1760;52.480;13.422;2022-11-15T00:18:31;32.27;;;14.87;;
3491;SDS011;1760;52.480;13.422;2022-11-15T00:21:02;32.93;;;15.10;;
3491;SDS011;1760;52.480;13.422;2022-11-15T00:23:31;26.00;;;14.37;;
3491;SDS011;1760;52.480;13.422;2022-11-15T00:26:00;26.50;;;15.10;;
3491;SDS011;1760;52.480;13.422;2022-11-15T00:28:29;22.23;;;13.70;;
3491;SDS011;1760;52.480;13.422;2022-11-15T00:30:59;28.33;;;15.70;;
3491;SDS011;1760;52.480;13.422;2022-11-15T00:33:27;30.40;;;15.77;;
3491;SDS011;1760;52.480;13.422;2022-11-15T00:36:00;25.90;;;14.63;;
3491;SDS011;1760;52.480;13.422;2022-11-15T00:38:30;24.90;;;13.50;;
3491;SDS011;1760;52.480;13.422;2022-11-15T00:40:57;26.13;;;14.77;;
3491;SDS011;1760;52.480;13.422;2022-11-15T00:43:28;30.93;;;15.40;;
3491;SDS011;1760;52.480;13.422;2022-11-15T00:45:55;29.30;;;16.00;;
3491;SDS011;1760;52.480;13.422;2022-11-15T00:48:22;31.67;;;15.40;;
3491;SDS011;1760;52.480;13.422;2022-11-15T00:50:51;29.03;;;15.97;;
3491;SDS011;1760;52.480;13.422;2022-11-15T00:53:20;26.50;;;16.20;;
3491;SDS011;1760;52.480;13.422;2022-11-15T00:55:47;25.03;;;15.43;;
3491;SDS011;1760;52.480;13.422;2022-11-15T00:58:14;29.23;;;14.60;;
3491;SDS011;1760;52.480;13.422;2022-11-15T01:00:42;23.10;;;12.87;;
3491;SDS011;1760;52.480;13.422;2022-11-15T01:03:09;32.70;;;16.80;;
3491;SDS011;1760;52.480;13.422;2022-11-15T01:05:36;26.50;;;14.23;;
3491;SDS011;1760;52.480;13.422;2022-11-15T01:08:03;26.70;;;15.17;;
3491;SDS011;1760;52.480;13.422;2022-11-15T01:10:32;26.10;;;14.70;;
3491;SDS011;1760;52.480;13.422;2022-11-15T01:12:59;34.77;;;15.47;;
3491;SDS011;1760;52.480;13.422;2022-11-15T01:15:25;34.73;;;16.93;;
3491;SDS011;1760;52.480;13.422;2022-11-15T01:17:52;25.93;;;14.87;;
3491;SDS011;1760;52.480;13.422;2022-11-15T01:20:19;29.40;;;16.50;;
3491;SDS011;1760;52.480;13.422;2022-11-15T01:22:46;29.30;;;16.07;;
3491;SDS011;1760;52.480;13.422;2022-11-15T01:25:13;25.70;;;14.40;;
3491;SDS011;1760;52.480;13.422;2022-11-15T01:27:42;30.80;;;17.37;;
3491;SDS011;1760;52.480;13.422;2022-11-15T01:30:09;26.33;;;14.17;;
3491;SDS011;1760;52.480;13.422;2022-11-15T01:32:36;32.40;;;17.17;;
3491;SDS011;1760;52.480;13.422;2022-11-15T01:35:03;35.83;;;17.93;;
3491;SDS011;1760;52.480;13.422;2022-11-15T01:37:30;30.33;;;16.27;;
3491;SDS011;1760;52.480;13.422;2022-11-15T01:39:57;28.50;;;15.53;;
3491;SDS011;1760;52.480;13.422;2022-11-15T01:42:24;22.07;;;12.97;;
3491;SDS011;1760;52.480;13.422;2022-11-15T01:44:52;27.17;;;17.20;;
3491;SDS011;1760;52.480;13.422;2022-11-15T01:47:20;25.13;;;14.53;;
3491;SDS011;1760;52.480;13.422;2022-11-15T01:49:51;24.20;;;15.77;;
3491;SDS011;1760;52.480;13.422;2022-11-15T01:52:23;26.67;;;14.50;;
3491;SDS011;1760;52.480;13.422;2022-11-15T01:54:53;37.43;;;16.40;;
3491;SDS011;1760;52.480;13.422;2022-11-15T01:57:25;29.73;;;15.60;;
3491;SDS011;1760;52.480;13.422;2022-11-15T01:59:53;30.27;;;17.50;;
3491;SDS011;1760;52.480;13.422;2022-11-15T02:02:21;26.43;;;16.17;;
3491;SDS011;1760;52.480;13.422;2022-11-15T02:04:48;29.37;;;14.37;;
3491;SDS011;1760;52.480;13.422;2022-11-15T02:07:16;29.07;;;15.50;;
3491;SDS011;1760;52.480;13.422;2022-11-15T02:09:44;28.57;;;14.93;;
3491;SDS011;1760;52.480;13.422;2022-11-15T02:12:12;31.40;;;16.77;;
3491;SDS011;1760;52.480;13.422;2022-11-15T02:14:42;27.23;;;15.93;;
3491;SDS011;1760;52.480;13.422;2022-11-15T02:17:18;21.53;;;12.60;;
3491;SDS011;1760;52.480;13.422;2022-11-15T02:20:10;27.80;;;15.93;;
3491;SDS011;1760;52.480;13.422;2022-11-15T02:23:04;28.67;;;15.97;;
3491;SDS011;1760;52.480;13.422;2022-11-15T02:25:49;24.10;;;12.90;;
3491;SDS011;1760;52.480;13.422;2022-11-15T02:28:38;25.83;;;15.07;;
3491;SDS011;1760;52.480;13.422;2022-11-15T02:31:14;27.53;;;14.03;;
3491;SDS011;1760;52.480;13.422;2022-11-15T02:33:51;25.90;;;15.20;;
3491;SDS011;1760;52.480;13.422;2022-11-15T02:36:24;26.30;;;15.07;;
3491;SDS011;1760;52.480;13.422;2022-11-15T02:39:02;35.37;;;17.43;;
3491;SDS011;1760;52.480;13.422;2022-11-15T02:41:35;26.10;;;13.37;;
3491;SDS011;1760;52.480;13.422;2022-11-15T02:44:12;29.60;;;15.07;;
3491;SDS011;1760;52.480;13.422;2022-11-15T02:46:45;30.03;;;17.30;;
3491;SDS011;1760;52.480;13.422;2022-11-15T02:49:34;28.07;;;15.87;;
3491;SDS011;1760;52.480;13.422;2022-11-15T02:52:02;29.30;;;14.93;;
3491;SDS011;1760;52.480;13.422;2022-11-15T02:54:32;31.67;;;15.80;;
3491;SDS011;1760;52.480;13.422;2022-11-15T02:57:00;38.23;;;14.50;;
3491;SDS011;1760;52.480;13.422;2022-11-15T03:02:36;29.53;;;14.80;;
3491;SDS011;1760;52.480;13.422;2022-11-15T03:05:24;27.23;;;16.00;;
3491;SDS011;1760;52.480;13.422;2022-11-15T03:07:56;25.40;;;15.00;;
3491;SDS011;1760;52.480;13.422;2022-11-15T03:10:36;36.60;;;16.97;;
3491;SDS011;1760;52.480;13.422;2022-11-15T03:13:14;26.30;;;15.30;;
3491;SDS011;1760;52.480;13.422;2022-11-15T03:15:49;27.30;;;14.43;;
3491;SDS011;1760;52.480;13.422;2022-11-15T03:18:21;30.10;;;15.67;;
3491;SDS011;1760;52.480;13.422;2022-11-15T03:20:53;25.57;;;15.47;;
3491;SDS011;1760;52.480;13.422;2022-11-15T03:23:27;23.60;;;14.10;;
3491;SDS011;1760;52.480;13.422;2022-11-15T03:25:56;27.03;;;14.30;;
3491;SDS011;1760;52.480;13.422;2022-11-15T03:28:28;32.07;;;15.50;;
3491;SDS011;1760;52.480;13.422;2022-11-15T03:30:59;26.10;;;15.43;;
3491;SDS011;1760;52.480;13.422;2022-11-15T03:33:49;29.73;;;15.20;;
3491;SDS011;1760;52.480;13.422;2022-11-15T03:36:18;33.67;;;18.47;;
3491;SDS011;1760;52.480;13.422;2022-11-15T03:38:48;30.20;;;14.67;;
3491;SDS011;1760;52.480;13.422;2022-11-15T03:41:15;34.23;;;17.77;;
3491;SDS011;1760;52.480;13.422;2022-11-15T03:43:47;31.90;;;15.70;;
3491;SDS011;1760;52.480;13.422;2022-11-15T03:46:23;30.80;;;17.03;;
3491;SDS011;1760;52.480;13.422;2022-11-15T03:49:00;31.57;;;15.03;;
3491;SDS011;1760;52.480;13.422;2022-11-15T03:51:32;23.07;;;13.47;;
3491;SDS011;1760;52.480;13.422;2022-11-15T03:53:59;24.70;;;15.63;;
3491;SDS011;1760;52.480;13.422;2022-11-15T03:56:29;38.40;;;14.57;;
3491;SDS011;1760;52.480;13.422;2022-11-15T03:58:58;26.27;;;15.40;;
3491;SDS011;1760;52.480;13.422;2022-11-15T04:01:25;30.13;;;16.40;;
3491;SDS011;1760;52.480;13.422;2022-11-15T04:03:52;24.80;;;14.83;;
3491;SDS011;1760;52.480;13.422;2022-11-15T04:06:20;27.70;;;16.53;;
3491;SDS011;1760;52.480;13.422;2022-11-15T04:08:47;26.23;;;15.33;;
3491;SDS011;1760;52.480;13.422;2022-11-15T04:11:14;23.13;;;13.43;;
3491;SDS011;1760;52.480;13.422;2022-11-15T04:13:41;29.87;;;16.00;;
3491;SDS011;1760;52.480;13.422;2022-11-15T04:16:08;28.50;;;16.63;;
3491;SDS011;1760;52.480;13.422;2022-11-15T04:18:35;28.13;;;16.30;;
3491;SDS011;1760;52.480;13.422;2022-11-15T04:21:02;34.87;;;17.10;;
3491;SDS011;1760;52.480;13.422;2022-11-15T04:23:48;31.37;;;15.60;;
3491;SDS011;1760;52.480;13.422;2022-11-15T04:26:33;26.37;;;14.37;;
3491;SDS011;1760;52.480;13.422;2022-11-15T04:31:38;26.93;;;15.67;;
3491;SDS011;1760;52.480;13.422;2022-11-15T04:34:05;26.30;;;15.23;;
3491;SDS011;1760;52.480;13.422;2022-11-15T04:36:32;31.43;;;15.70;;
3491;SDS011;1760;52.480;13.422;2022-11-15T04:39:18;24.83;;;14.37;;
3491;SDS011;1760;52.480;13.422;2022-11-15T04:41:44;28.57;;;15.40;;
3491;SDS011;1760;52.480;13.422;2022-11-15T04:44:11;23.83;;;14.43;;
3491;SDS011;1760;52.480;13.422;2022-11-15T04:46:38;30.70;;;14.90;;
3491;SDS011;1760;52.480;13.422;2022-11-15T04:49:05;31.17;;;15.60;;
3491;SDS011;1760;52.480;13.422;2022-11-15T04:51:32;24.50;;;14.60;;
3491;SDS011;1760;52.480;13.422;2022-11-15T04:53:59;27.47;;;15.40;;
3491;SDS011;1760;52.480;13.422;2022-11-15T04:56:27;30.83;;;17.03;;
3491;SDS011;1760;52.480;13.422;2022-11-15T04:58:54;25.83;;;14.57;;
3491;SDS011;1760;52.480;13.422;2022-11-15T05:01:21;39.87;;;16.67;;
3491;SDS011;1760;52.480;13.422;2022-11-15T05:03:48;32.50;;;16.70;;
3491;SDS011;1760;52.480;13.422;2022-11-15T05:06:32;30.77;;;14.27;;
3491;SDS011;1760;52.480;13.422;2022-11-15T05:08:59;28.33;;;16.37;;
3491;SDS011;1760;52.480;13.422;2022-11-15T05:11:27;25.20;;;14.60;;
3491;SDS011;1760;52.480;13.422;2022-11-15T05:13:54;33.07;;;17.10;;
3491;SDS011;1760;52.480;13.422;2022-11-15T05:16:21;32.50;;;14.50;;
3491;SDS011;1760;52.480;13.422;2022-11-15T05:18:50;37.20;;;16.57;;
3491;SDS011;1760;52.480;13.422;2022-11-15T05:21:17;31.57;;;18.13;;
3491;SDS011;1760;52.480;13.422;2022-11-15T05:23:44;29.23;;;15.60;;
3491;SDS011;1760;52.480;13.422;2022-11-15T05:26:14;27.00;;;14.23;;
3491;SDS011;1760;52.480;13.422;2022-11-15T05:28:45;31.20;;;15.50;;
3491;SDS011;1760;52.480;13.422;2022-11-15T05:31:12;28.83;;;14.53;;
3491;SDS011;1760;52.480;13.422;2022-11-15T05:33:40;28.57;;;14.60;;
3491;SDS011;1760;52.480;13.422;2022-11-15T05:36:09;26.83;;;14.60;;
3491;SDS011;1760;52.480;13.422;2022-11-15T05:38:41;26.83;;;16.70;;
3491;SDS011;1760;52.480;13.422;2022-11-15T05:41:08;33.50;;;17.00;;
3491;SDS011;1760;52.480;13.422;2022-11-15T05:43:36;25.80;;;15.43;;
3491;SDS011;1760;52.480;13.422;2022-11-15T05:46:06;30.20;;;17.00;;
3491;SDS011;1760;52.480;13.422;2022-11-15T05:48:34;27.90;;;15.97;;
3491;SDS011;1760;52.480;13.422;2022-11-15T05:51:02;27.70;;;15.33;;
3491;SDS011;1760;52.480;13.422;2022-11-15T05:53:31;32.70;;;16.07;;
3491;SDS011;1760;52.480;13.422;2022-11-15T05:55:58;26.07;;;14.10;;
3491;SDS011;1760;52.480;13.422;2022-11-15T05:58:24;27.70;;;15.60;;
3491;SDS011;1760;52.480;13.422;2022-11-15T06:00:51;28.57;;;16.83;;
3491;SDS011;1760;52.480;13.422;2022-11-15T06:03:21;29.03;;;15.40;;
3491;SDS011;1760;52.480;13.422;2022-11-15T06:05:48;31.87;;;15.83;;
3491;SDS011;1760;52.480;13.422;2022-11-15T06:08:15;30.70;;;16.63;;
3491;SDS011;1760;52.480;13.422;2022-11-15T06:10:42;29.33;;;16.17;;
3491;SDS011;1760;52.480;13.422;2022-11-15T06:13:09;28.37;;;15.07;;
3491;SDS011;1760;52.480;13.422;2022-11-15T06:15:35;23.57;;;14.27;;
3491;SDS011;1760;52.480;13.422;2022-11-15T06:18:02;25.83;;;14.40;;
3491;SDS011;1760;52.480;13.422;2022-11-15T06:20:31;32.60;;;17.43;;
3491;SDS011;1760;52.480;13.422;2022-11-15T06:22:58;29.93;;;14.27;;
3491;SDS011;1760;52.480;13.422;2022-11-15T06:25:25;39.20;;;16.70;;
3491;SDS011;1760;52.480;13.422;2022-11-15T06:27:52;33.37;;;16.73;;
3491;SDS011;1760;52.480;13.422;2022-11-15T06:30:19;36.73;;;17.37;;
3491;SDS011;1760;52.480;13.422;2022-11-15T06:32:46;29.47;;;16.10;;
3491;SDS011;1760;52.480;13.422;2022-11-15T06:35:13;30.90;;;15.87;;
3491;SDS011;1760;52.480;13.422;2022-11-15T06:37:42;32.97;;;15.80;;
3491;SDS011;1760;52.480;13.422;2022-11-15T06:40:09;28.17;;;14.70;;
3491;SDS011;1760;52.480;13.422;2022-11-15T06:42:37;33.57;;;16.40;;
3491;SDS011;1760;52.480;13.422;2022-11-15T06:45:04;26.00;;;15.27;;
3491;SDS011;1760;52.480;13.422;2022-11-15T06:47:31;28.07;;;15.90;;
3491;SDS011;1760;52.480;13.422;2022-11-15T06:49:58;28.80;;;15.27;;
3491;SDS011;1760;52.480;13.422;2022-11-15T06:52:25;33.20;;;17.80;;
3491;SDS011;1760;52.480;13.422;2022-11-15T06:54:58;33.87;;;15.10;;
3491;SDS011;1760;52.480;13.422;2022-11-15T06:57:25;26.10;;;14.43;;
3491;SDS011;1760;52.480;13.422;2022-11-15T06:59:52;28.10;;;14.77;;
3491;SDS011;1760;52.480;13.422;2022-11-15T07:02:19;29.30;;;15.23;;
3491;SDS011;1760;52.480;13.422;2022-11-15T07:04:46;25.03;;;15.33;;
3491;SDS011;1760;52.480;13.422;2022-11-15T07:07:13;31.50;;;17.60;;
3491;SDS011;1760;52.480;13.422;2022-11-15T07:09:39;24.30;;;13.30;;
3491;SDS011;1760;52.480;13.422;2022-11-15T07:12:08;31.07;;;14.53;;
3491;SDS011;1760;52.480;13.422;2022-11-15T07:14:34;28.80;;;13.93;;
3491;SDS011;1760;52.480;13.422;2022-11-15T07:17:02;30.27;;;15.30;;
3491;SDS011;1760;52.480;13.422;2022-11-15T07:19:29;27.13;;;14.60;;
3491;SDS011;1760;52.480;13.422;2022-11-15T07:22:09;28.63;;;14.07;;
3491;SDS011;1760;52.480;13.422;2022-11-15T07:24:36;25.57;;;14.13;;
3491;SDS011;1760;52.480;13.422;2022-11-15T07:27:02;29.67;;;15.53;;
3491;SDS011;1760;52.480;13.422;2022-11-15T07:29:31;31.67;;;15.20;;
3491;SDS011;1760;52.480;13.422;2022-11-15T07:31:57;27.47;;;13.60;;
3491;SDS011;1760;52.480;13.422;2022-11-15T07:34:24;28.50;;;15.40;;
3491;SDS011;1760;52.480;13.422;2022-11-15T07:36:51;27.53;;;14.03;;
3491;SDS011;1760;52.480;13.422;2022-11-15T07:39:18;27.60;;;14.20;;
3491;SDS011;1760;52.480;13.422;2022-11-15T07:41:45;27.17;;;14.80;;
3491;SDS011;1760;52.480;13.422;2022-11-15T07:44:13;35.00;;;16.50;;
3491;SDS011;1760;52.480;13.422;2022-11-15T07:46:41;32.17;;;17.97;;
3491;SDS011;1760;52.480;13.422;2022-11-15T07:49:08;23.37;;;14.17;;
3491;SDS011;1760;52.480;13.422;2022-11-15T07:51:35;28.50;;;13.67;;
3491;SDS011;1760;52.480;13.422;2022-11-15T07:54:02;30.63;;;17.70;;
3491;SDS011;1760;52.480;13.422;2022-11-15T07:56:28;33.60;;;18.10;;
3491;SDS011;1760;52.480;13.422;2022-11-15T07:58:55;28.60;;;15.37;;
3491;SDS011;1760;52.480;13.422;2022-11-15T08:01:24;22.97;;;15.20;;
3491;SDS011;1760;52.480;13.422;2022-11-15T08:03:52;37.20;;;18.00;;
3491;SDS011;1760;52.480;13.422;2022-11-15T08:06:19;27.23;;;15.10;;
3491;SDS011;1760;52.480;13.422;2022-11-15T08:08:46;30.73;;;14.70;;
3491;SDS011;1760;52.480;13.422;2022-11-15T08:11:13;27.70;;;16.47;;
3491;SDS011;1760;52.480;13.422;2022-11-15T08:13:40;27.10;;;15.03;;
3491;SDS011;1760;52.480;13.422;2022-11-15T08:16:07;30.60;;;15.97;;
3491;SDS011;1760;52.480;13.422;2022-11-15T08:18:36;25.70;;;15.33;;
3491;SDS011;1760;52.480;13.422;2022-11-15T08:21:05;24.30;;;14.37;;
3491;SDS011;1760;52.480;13.422;2022-11-15T08:23:32;33.20;;;16.80;;
3491;SDS011;1760;52.480;13.422;2022-11-15T08:25:59;31.80;;;16.63;;
3491;SDS011;1760;52.480;13.422;2022-11-15T08:28:27;30.03;;;15.60;;
3491;SDS011;1760;52.480;13.422;2022-11-15T08:30:54;23.40;;;15.83;;
3491;SDS011;1760;52.480;13.422;2022-11-15T08:33:21;26.17;;;14.50;;
3491;SDS011;1760;52.480;13.422;2022-11-15T08:35:48;28.23;;;15.93;;
3491;SDS011;1760;52.480;13.422;2022-11-15T08:38:17;33.57;;;15.57;;
3491;SDS011;1760;52.480;13.422;2022-11-15T08:40:44;26.60;;;15.80;;
3491;SDS011;1760;52.480;13.422;2022-11-15T08:43:11;25.47;;;14.83;;
3491;SDS011;1760;52.480;13.422;2022-11-15T08:45:37;29.20;;;16.37;;
3491;SDS011;1760;52.480;13.422;2022-11-15T08:48:04;28.63;;;15.03;;
3491;SDS011;1760;52.480;13.422;2022-11-15T08:50:31;40.37;;;16.63;;
3491;SDS011;1760;52.480;13.422;2022-11-15T08:53:03;31.60;;;15.80;;
3491;SDS011;1760;52.480;13.422;2022-11-15T08:55:32;26.33;;;14.63;;
3491;SDS011;1760;52.480;13.422;2022-11-15T08:58:02;27.87;;;15.33;;
3491;SDS011;1760;52.480;13.422;2022-11-15T09:00:29;27.60;;;13.70;;
3491;SDS011;1760;52.480;13.422;2022-11-15T09:02:56;28.37;;;14.37;;
3491;SDS011;1760;52.480;13.422;2022-11-15T09:05:22;23.67;;;14.70;;
3491;SDS011;1760;52.480;13.422;2022-11-15T09:07:52;20.73;;;13.60;;
3491;SDS011;1760;52.480;13.422;2022-11-15T09:10:20;23.63;;;13.30;;
3491;SDS011;1760;52.480;13.422;2022-11-15T09:12:48;23.83;;;14.20;;
3491;SDS011;1760;52.480;13.422;2022-11-15T09:15:15;20.90;;;11.67;;
3491;SDS011;1760;52.480;13.422;2022-11-15T09:17:42;21.50;;;12.50;;
3491;SDS011;1760;52.480;13.422;2022-11-15T09:20:09;22.90;;;12.97;;
3491;SDS011;1760;52.480;13.422;2022-11-15T09:22:36;21.90;;;12.17;;
3491;SDS011;1760;52.480;13.422;2022-11-15T09:25:04;23.70;;;13.50;;
3491;SDS011;1760;52.480;13.422;2022-11-15T09:27:32;18.57;;;11.40;;
3491;SDS011;1760;52.480;13.422;2022-11-15T09:30:00;13.93;;;11.03;;
3491;SDS011;1760;52.480;13.422;2022-11-15T09:32:28;13.70;;;9.40;;
3491;SDS011;1760;52.480;13.422;2022-11-15T09:34:55;16.93;;;10.47;;
3491;SDS011;1760;52.480;13.422;2022-11-15T09:37:22;17.27;;;10.10;;
3491;SDS011;1760;52.480;13.422;2022-11-15T09:39:49;18.80;;;10.60;;
3491;SDS011;1760;52.480;13.422;2022-11-15T09:42:23;13.50;;;9.67;;
3491;SDS011;1760;52.480;13.422;2022-11-15T09:45:05;16.30;;;10.40;;
3491;SDS011;1760;52.480;13.422;2022-11-15T09:47:46;15.07;;;10.63;;
3491;SDS011;1760;52.480;13.422;2022-11-15T09:50:39;20.33;;;10.90;;
3491;SDS011;1760;52.480;13.422;2022-11-15T09:53:12;14.77;;;10.20;;
3491;SDS011;1760;52.480;13.422;2022-11-15T09:55:46;17.87;;;11.27;;
3491;SDS011;1760;52.480;13.422;2022-11-15T09:58:18;14.73;;;11.07;;
3491;SDS011;1760;52.480;13.422;2022-11-15T10:00:54;17.20;;;11.10;;
3491;SDS011;1760;52.480;13.422;2022-11-15T10:03:27;18.00;;;11.10;;
3491;SDS011;1760;52.480;13.422;2022-11-15T10:05:57;15.33;;;10.10;;
3491;SDS011;1760;52.480;13.422;2022-11-15T10:08:37;13.00;;;9.60;;
3491;SDS011;1760;52.480;13.422;2022-11-15T10:11:15;13.90;;;9.27;;
3491;SDS011;1760;52.480;13.422;2022-11-15T10:13:45;13.57;;;9.90;;
3491;SDS011;1760;52.480;13.422;2022-11-15T10:16:20;18.77;;;10.73;;
3491;SDS011;1760;52.480;13.422;2022-11-15T10:19:00;15.00;;;9.83;;
3491;SDS011;1760;52.480;13.422;2022-11-15T10:21:37;16.43;;;9.50;;
3491;SDS011;1760;52.480;13.422;2022-11-15T10:24:13;13.83;;;9.87;;
3491;SDS011;1760;52.480;13.422;2022-11-15T10:26:45;21.67;;;12.33;;
3491;SDS011;1760;52.480;13.422;2022-11-15T10:29:17;19.50;;;11.57;;
3491;SDS011;1760;52.480;13.422;2022-11-15T10:31:46;18.97;;;10.23;;
3491;SDS011;1760;52.480;13.422;2022-11-15T10:34:14;14.73;;;10.57;;
3491;SDS011;1760;52.480;13.422;2022-11-15T10:36:43;17.30;;;10.40;;
3491;SDS011;1760;52.480;13.422;2022-11-15T10:39:11;12.37;;;9.57;;
3491;SDS011;1760;52.480;13.422;2022-11-15T10:41:40;12.67;;;10.47;;
3491;SDS011;1760;52.480;13.422;2022-11-15T10:44:12;13.77;;;8.87;;
3491;SDS011;1760;52.480;13.422;2022-11-15T10:47:03;18.47;;;11.47;;
3491;SDS011;1760;52.480;13.422;2022-11-15T10:49:52;16.20;;;11.50;;
3491;SDS011;1760;52.480;13.422;2022-11-15T10:52:24;19.70;;;11.43;;
3491;SDS011;1760;52.480;13.422;2022-11-15T10:54:52;18.87;;;10.80;;
3491;SDS011;1760;52.480;13.422;2022-11-15T10:57:23;17.40;;;10.60;;
3491;SDS011;1760;52.480;13.422;2022-11-15T10:59:53;16.10;;;9.73;;
3491;SDS011;1760;52.480;13.422;2022-11-15T11:02:33;16.07;;;9.70;;
3491;SDS011;1760;52.480;13.422;2022-11-15T11:05:03;15.03;;;9.80;;
3491;SDS011;1760;52.480;13.422;2022-11-15T11:07:32;14.57;;;9.80;;
3491;SDS011;1760;52.480;13.422;2022-11-15T11:10:02;22.40;;;10.40;;
3491;SDS011;1760;52.480;13.422;2022-11-15T11:12:31;19.30;;;10.40;;
3491;SDS011;1760;52.480;13.422;2022-11-15T11:14:59;15.37;;;11.00;;
3491;SDS011;1760;52.480;13.422;2022-11-15T11:17:34;15.20;;;8.97;;
3491;SDS011;1760;52.480;13.422;2022-11-15T11:20:17;18.13;;;10.77;;
3491;SDS011;1760;52.480;13.422;2022-11-15T11:22:52;21.80;;;10.50;;
3491;SDS011;1760;52.480;13.422;2022-11-15T11:25:30;17.23;;;9.77;;
3491;SDS011;1760;52.480;13.422;2022-11-15T11:28:12;19.27;;;11.27;;
3491;SDS011;1760;52.480;13.422;2022-11-15T11:30:51;15.50;;;9.37;;
3491;SDS011;1760;52.480;13.422;2022-11-15T11:33:29;16.33;;;9.87;;
3491;SDS011;1760;52.480;13.422;2022-11-15T11:36:02;19.73;;;10.93;;
3491;SDS011;1760;52.480;13.422;2022-11-15T11:38:44;16.50;;;9.43;;
3491;SDS011;1760;52.480;13.422;2022-11-15T11:41:30;15.43;;;9.73;;
3491;SDS011;1760;52.480;13.422;2022-11-15T11:44:24;16.13;;;9.77;;
3491;SDS011;1760;52.480;13.422;2022-11-15T11:46:58;13.97;;;9.00;;
3491;SDS011;1760;52.480;13.422;2022-11-15T11:49:29;16.67;;;9.53;;
3491;SDS011;1760;52.480;13.422;2022-11-15T11:52:02;15.70;;;9.13;;
3491;SDS011;1760;52.480;13.422;2022-11-15T11:54:38;13.90;;;8.20;;
3491;SDS011;1760;52.480;13.422;2022-11-15T11:57:13;29.50;;;16.30;;
3491;SDS011;1760;52.480;13.422;2022-11-15T11:59:50;18.53;;;10.97;;
3491;SDS011;1760;52.480;13.422;2022-11-15T12:02:24;12.53;;;9.50;;
3491;SDS011;1760;52.480;13.422;2022-11-15T12:04:57;14.93;;;9.63;;
3491;SDS011;1760;52.480;13.422;2022-11-15T12:07:31;14.70;;;8.87;;
3491;SDS011;1760;52.480;13.422;2022-11-15T12:10:02;16.53;;;9.60;;
3491;SDS011;1760;52.480;13.422;2022-11-15T12:12:41;17.20;;;10.10;;
3491;SDS011;1760;52.480;13.422;2022-11-15T12:15:14;16.83;;;10.30;;
3491;SDS011;1760;52.480;13.422;2022-11-15T12:17:43;16.13;;;9.20;;
3491;SDS011;1760;52.480;13.422;2022-11-15T12:20:16;15.87;;;9.70;;
3491;SDS011;1760;52.480;13.422;2022-11-15T12:22:47;14.77;;;8.90;;
3491;SDS011;1760;52.480;13.422;2022-11-15T12:25:20;17.27;;;11.97;;
3491;SDS011;1760;52.480;13.422;2022-11-15T12:27:52;17.67;;;10.03;;
3491;SDS011;1760;52.480;13.422;2022-11-15T12:30:22;19.80;;;11.30;;
3491;SDS011;1760;52.480;13.422;2022-11-15T12:32:52;15.77;;;8.40;;
3491;SDS011;1760;52.480;13.422;2022-11-15T12:35:25;14.70;;;10.23;;
3491;SDS011;1760;52.480;13.422;2022-11-15T12:40:34;18.40;;;10.70;;
3491;SDS011;1760;52.480;13.422;2022-11-15T12:45:50;18.50;;;9.80;;
3491;SDS011;1760;52.480;13.422;2022-11-15T12:57:28;16.93;;;9.57;;
3491;SDS011;1760;52.480;13.422;2022-11-15T13:03:23;17.20;;;10.23;;
3491;SDS011;1760;52.480;13.422;2022-11-15T13:06:06;15.07;;;9.47;;
3491;SDS011;1760;52.480;13.422;2022-11-15T13:08:36;18.63;;;10.87;;
3491;SDS011;1760;52.480;13.422;2022-11-15T13:17:27;32.50;;;16.63;;
3491;SDS011;1760;52.480;13.422;2022-11-15T13:20:22;16.43;;;11.90;;
3491;SDS011;1760;52.480;13.422;2022-11-15T13:22:53;17.77;;;11.13;;
3491;SDS011;1760;52.480;13.422;2022-11-15T13:25:48;14.33;;;9.93;;
3491;SDS011;1760;52.480;13.422;2022-11-15T13:28:38;13.23;;;9.80;;
3491;SDS011;1760;52.480;13.422;2022-11-15T13:31:16;17.33;;;9.70;;
3491;SDS011;1760;52.480;13.422;2022-11-15T13:33:48;19.17;;;9.73;;
3491;SDS011;1760;52.480;13.422;2022-11-15T13:36:17;16.20;;;9.10;;
3491;SDS011;1760;52.480;13.422;2022-11-15T13:38:54;14.80;;;7.73;;
3491;SDS011;1760;52.480;13.422;2022-11-15T13:41:23;12.07;;;8.67;;
3491;SDS011;1760;52.480;13.422;2022-11-15T13:43:53;19.00;;;9.30;;
3491;SDS011;1760;52.480;13.422;2022-11-15T13:46:21;12.10;;;8.93;;
3491;SDS011;1760;52.480;13.422;2022-11-15T13:48:53;14.13;;;8.63;;
3491;SDS011;1760;52.480;13.422;2022-11-15T13:51:25;16.60;;;10.80;;
3491;SDS011;1760;52.480;13.422;2022-11-15T13:54:06;17.53;;;9.53;;
3491;SDS011;1760;52.480;13.422;2022-11-15T13:56:42;11.40;;;8.47;;
3491;SDS011;1760;52.480;13.422;2022-11-15T13:59:15;14.07;;;8.73;;
3491;SDS011;1760;52.480;13.422;2022-11-15T14:01:49;12.00;;;8.87;;
3491;SDS011;1760;52.480;13.422;2022-11-15T14:04:23;12.90;;;8.80;;
3491;SDS011;1760;52.480;13.422;2022-11-15T14:06:52;15.03;;;8.57;;
3491;SDS011;1760;52.480;13.422;2022-11-15T14:09:34;41.23;;;21.27;;
3491;SDS011;1760;52.480;13.422;2022-11-15T14:15:24;15.93;;;10.70;;
3491;SDS011;1760;52.480;13.422;2022-11-15T14:17:54;19.57;;;11.77;;
3491;SDS011;1760;52.480;13.422;2022-11-15T14:20:28;18.10;;;9.60;;
3491;SDS011;1760;52.480;13.422;2022-11-15T14:22:58;13.13;;;9.13;;
3491;SDS011;1760;52.480;13.422;2022-11-15T14:25:29;14.60;;;9.57;;
3491;SDS011;1760;52.480;13.422;2022-11-15T14:28:18;14.17;;;9.40;;
3491;SDS011;1760;52.480;13.422;2022-11-15T14:30:57;13.20;;;8.53;;
3491;SDS011;1760;52.480;13.422;2022-11-15T14:33:27;16.17;;;9.07;;
3491;SDS011;1760;52.480;13.422;2022-11-15T14:35:56;17.57;;;11.00;;
3491;SDS011;1760;52.480;13.422;2022-11-15T14:38:25;15.30;;;10.97;;
3491;SDS011;1760;52.480;13.422;2022-11-15T14:40:53;18.07;;;11.50;;
3491;SDS011;1760;52.480;13.422;2022-11-15T14:43:21;19.20;;;10.67;;
3491;SDS011;1760;52.480;13.422;2022-11-15T14:45:51;22.30;;;10.40;;
3491;SDS011;1760;52.480;13.422;2022-11-15T14:48:19;15.33;;;9.67;;
3491;SDS011;1760;52.480;13.422;2022-11-15T14:50:47;18.60;;;9.70;;
3491;SDS011;1760;52.480;13.422;2022-11-15T14:53:14;15.70;;;10.30;;
3491;SDS011;1760;52.480;13.422;2022-11-15T14:55:43;16.50;;;10.63;;
3491;SDS011;1760;52.480;13.422;2022-11-15T14:58:10;15.90;;;10.60;;
3491;SDS011;1760;52.480;13.422;2022-11-15T15:00:37;20.43;;;11.50;;
3491;SDS011;1760;52.480;13.422;2022-11-15T15:03:06;19.80;;;10.13;;
3491;SDS011;1760;52.480;13.422;2022-11-15T15:05:35;23.73;;;12.07;;
3491;SDS011;1760;52.480;13.422;2022-11-15T15:08:04;13.40;;;9.70;;
3491;SDS011;1760;52.480;13.422;2022-11-15T15:10:32;15.80;;;9.40;;
3491;SDS011;1760;52.480;13.422;2022-11-15T15:13:01;13.93;;;8.90;;
3491;SDS011;1760;52.480;13.422;2022-11-15T15:15:30;20.60;;;11.23;;
3491;SDS011;1760;52.480;13.422;2022-11-15T15:18:02;16.83;;;10.07;;
3491;SDS011;1760;52.480;13.422;2022-11-15T15:20:29;15.73;;;9.43;;
3491;SDS011;1760;52.480;13.422;2022-11-15T15:22:58;13.87;;;10.40;;
3491;SDS011;1760;52.480;13.422;2022-11-15T15:25:26;14.47;;;10.30;;
3491;SDS011;1760;52.480;13.422;2022-11-15T15:27:54;16.57;;;10.17;;
3491;SDS011;1760;52.480;13.422;2022-11-15T15:30:22;17.10;;;10.23;;